sensor_id;sensor_type;location;lat;lon;timestamp;pressure;altitude;pressure_sealevel;temperature;humidity
13765;BME280;6953;48.810;9.204;2023-08-07T00:00:58;98586.00;;;13.96;100.00
13765;BME280;6953;48.810;9.204;2023-08-07T00:03:24;98534.59;;;13.76;100.00
13765;BME280;6953;48.810;9.204;2023-08-07T00:05:49;98573.28;;;14.15;100.00
13765;BME280;6953;48.810;9.204;2023-08-07T00:08:16;98591.78;;;14.01;100.00
13765;BME280;6953;48.810;9.204;2023-08-07T00:10:42;98575.47;;;14.33;100.00
13765;BME280;6953;48.810;9.204;2023-08-07T00:13:07;98350.88;;;13.02;100.00
13765;BME280;6953;48.810;9.204;2023-08-07T00:15:32;98605.22;;;14.48;100.00
13765;BME280;6953;48.810;9.204;2023-08-07T00:18:00;98346.69;;;13.12;100.00
13765;BME280;6953;48.810;9.204;2023-08-07T00:20:26;98572.28;;;14.41;100.00
13765;BME280;6953;48.810;9.204;2023-08-07T00:22:51;98598.47;;;14.44;100.00
13765;BME280;6953;48.810;9.204;2023-08-07T00:25:17;98591.69;;;14.52;100.00
13765;BME280;6953;48.810;9.204;2023-08-07T00:27:42;98612.53;;;14.57;100.00
13765;BME280;6953;48.810;9.204;2023-08-07T00:30:08;98617.34;;;14.62;100.00
13765;BME280;6953;48.810;9.204;2023-08-07T00:32:33;98597.38;;;14.71;100.00
13765;BME280;6953;48.810;9.204;2023-08-07T00:34:58;98532.63;;;14.30;100.00
13765;BME280;6953;48.810;9.204;2023-08-07T00:37:23;98388.31;;;13.57;100.00
13765;BME280;6953;48.810;9.204;2023-08-07T00:39:49;98605.94;;;14.87;99.38
13765;BME280;6953;48.810;9.204;2023-08-07T00:42:14;98610.00;;;14.91;98.64
13765;BME280;6953;48.810;9.204;2023-08-07T00:44:39;98615.94;;;14.94;98.34
13765;BME280;6953;48.810;9.204;2023-08-07T00:47:06;98594.41;;;14.88;96.85
13765;BME280;6953;48.810;9.204;2023-08-07T00:49:31;98354.28;;;13.42;95.99
13765;BME280;6953;48.810;9.204;2023-08-07T00:51:57;98602.28;;;15.00;95.86
13765;BME280;6953;48.810;9.204;2023-08-07T00:54:24;98595.63;;;14.95;95.28
13765;BME280;6953;48.810;9.204;2023-08-07T00:56:50;98612.06;;;15.11;95.66
13765;BME280;6953;48.810;9.204;2023-08-07T00:59:15;98627.84;;;15.12;95.20
13765;BME280;6953;48.810;9.204;2023-08-07T01:01:41;98639.69;;;15.07;94.92
13765;BME280;6953;48.810;9.204;2023-08-07T01:04:06;98615.44;;;15.13;94.50
13765;BME280;6953;48.810;9.204;2023-08-07T01:06:32;98541.44;;;14.66;93.64
13765;BME280;6953;48.810;9.204;2023-08-07T01:08:57;98625.06;;;15.14;93.45
13765;BME280;6953;48.810;9.204;2023-08-07T01:14:10;98645.91;;;15.18;92.17
13765;BME280;6953;48.810;9.204;2023-08-07T01:16:51;98470.75;;;14.34;92.77
13765;BME280;6953;48.810;9.204;2023-08-07T01:19:24;98560.50;;;14.82;92.52
13765;BME280;6953;48.810;9.204;2023-08-07T01:21:54;98650.19;;;15.19;92.69
13765;BME280;6953;48.810;9.204;2023-08-07T01:24:28;98621.38;;;15.16;92.46
13765;BME280;6953;48.810;9.204;2023-08-07T01:26:54;98623.78;;;15.19;91.97
13765;BME280;6953;48.810;9.204;2023-08-07T01:29:28;98659.72;;;15.22;91.79
13765;BME280;6953;48.810;9.204;2023-08-07T01:31:58;98649.03;;;15.23;91.40
13765;BME280;6953;48.810;9.204;2023-08-07T01:34:26;98416.00;;;14.00;91.24
13765;BME280;6953;48.810;9.204;2023-08-07T01:36:53;98619.13;;;15.23;90.78
13765;BME280;6953;48.810;9.204;2023-08-07T01:39:19;98629.31;;;15.16;90.30
13765;BME280;6953;48.810;9.204;2023-08-07T01:41:46;98542.66;;;14.73;90.65
13765;BME280;6953;48.810;9.204;2023-08-07T01:44:12;98605.59;;;15.15;90.70
13765;BME280;6953;48.810;9.204;2023-08-07T01:46:37;98613.53;;;15.15;89.75
13765;BME280;6953;48.810;9.204;2023-08-07T01:49:03;98611.28;;;15.21;88.87
13765;BME280;6953;48.810;9.204;2023-08-07T01:51:28;98432.00;;;14.09;87.88
13765;BME280;6953;48.810;9.204;2023-08-07T01:53:53;98622.59;;;15.23;87.96
13765;BME280;6953;48.810;9.204;2023-08-07T01:56:19;98320.44;;;13.48;87.64
13765;BME280;6953;48.810;9.204;2023-08-07T01:58:44;98519.78;;;14.61;87.81
13765;BME280;6953;48.810;9.204;2023-08-07T02:01:09;98608.03;;;15.18;87.26
13765;BME280;6953;48.810;9.204;2023-08-07T02:03:34;98625.38;;;15.22;86.62
13765;BME280;6953;48.810;9.204;2023-08-07T02:06:00;98621.69;;;15.12;86.45
13765;BME280;6953;48.810;9.204;2023-08-07T02:08:27;98444.06;;;14.13;86.79
13765;BME280;6953;48.810;9.204;2023-08-07T02:10:52;98625.59;;;15.19;86.29
13765;BME280;6953;48.810;9.204;2023-08-07T02:13:17;98613.31;;;15.18;86.56
13765;BME280;6953;48.810;9.204;2023-08-07T02:15:42;98630.00;;;15.31;86.42
13765;BME280;6953;48.810;9.204;2023-08-07T02:18:08;98618.03;;;15.38;85.04
13765;BME280;6953;48.810;9.204;2023-08-07T02:20:33;98626.13;;;15.47;84.90
13765;BME280;6953;48.810;9.204;2023-08-07T02:22:58;98621.75;;;15.35;84.55
13765;BME280;6953;48.810;9.204;2023-08-07T02:25:23;98652.59;;;15.47;84.99
13765;BME280;6953;48.810;9.204;2023-08-07T02:27:49;98654.88;;;15.52;85.58
13765;BME280;6953;48.810;9.204;2023-08-07T02:30:14;98639.41;;;15.35;86.56
13765;BME280;6953;48.810;9.204;2023-08-07T02:32:39;98570.47;;;14.66;87.73
13765;BME280;6953;48.810;9.204;2023-08-07T02:35:07;98635.19;;;14.84;89.43
13765;BME280;6953;48.810;9.204;2023-08-07T02:37:33;98444.81;;;13.41;90.62
13765;BME280;6953;48.810;9.204;2023-08-07T02:39:58;98428.66;;;13.20;92.45
13765;BME280;6953;48.810;9.204;2023-08-07T02:42:24;98643.78;;;14.25;93.39
13765;BME280;6953;48.810;9.204;2023-08-07T02:44:49;98620.91;;;13.99;94.50
13765;BME280;6953;48.810;9.204;2023-08-07T02:47:14;98641.28;;;13.97;94.80
13765;BME280;6953;48.810;9.204;2023-08-07T02:49:39;98646.94;;;13.91;95.57
13765;BME280;6953;48.810;9.204;2023-08-07T02:52:05;98649.91;;;13.87;94.87
13765;BME280;6953;48.810;9.204;2023-08-07T02:54:30;98651.59;;;13.88;96.17
13765;BME280;6953;48.810;9.204;2023-08-07T02:56:56;98672.38;;;13.92;94.70
13765;BME280;6953;48.810;9.204;2023-08-07T02:59:22;98641.38;;;13.96;94.35
13765;BME280;6953;48.810;9.204;2023-08-07T03:01:47;98649.25;;;14.22;92.45
13765;BME280;6953;48.810;9.204;2023-08-07T03:04:12;98656.13;;;14.37;91.04
13765;BME280;6953;48.810;9.204;2023-08-07T03:06:38;98571.75;;;14.11;89.55
13765;BME280;6953;48.810;9.204;2023-08-07T03:09:03;98568.03;;;14.01;89.56
13765;BME280;6953;48.810;9.204;2023-08-07T03:11:28;98686.66;;;14.54;89.04
13765;BME280;6953;48.810;9.204;2023-08-07T03:13:54;98650.53;;;14.54;89.45
13765;BME280;6953;48.810;9.204;2023-08-07T03:16:19;98655.72;;;14.56;88.98
13765;BME280;6953;48.810;9.204;2023-08-07T03:18:44;98623.81;;;14.21;88.82
13765;BME280;6953;48.810;9.204;2023-08-07T03:21:10;98592.19;;;14.07;88.00
13765;BME280;6953;48.810;9.204;2023-08-07T03:23:35;98666.03;;;14.58;87.67
13765;BME280;6953;48.810;9.204;2023-08-07T03:26:09;98659.72;;;14.61;87.67
13765;BME280;6953;48.810;9.204;2023-08-07T03:28:35;98664.34;;;14.70;87.40
13765;BME280;6953;48.810;9.204;2023-08-07T03:31:01;98665.84;;;14.74;87.36
13765;BME280;6953;48.810;9.204;2023-08-07T03:33:26;98667.19;;;14.79;87.06
13765;BME280;6953;48.810;9.204;2023-08-07T03:35:52;98658.66;;;14.76;86.60
13765;BME280;6953;48.810;9.204;2023-08-07T03:38:17;98672.59;;;14.78;86.77
13765;BME280;6953;48.810;9.204;2023-08-07T03:40:43;98579.78;;;14.34;87.18
13765;BME280;6953;48.810;9.204;2023-08-07T03:43:08;98580.84;;;14.32;87.02
13765;BME280;6953;48.810;9.204;2023-08-07T03:45:33;98642.19;;;14.60;87.19
13765;BME280;6953;48.810;9.204;2023-08-07T03:47:59;98438.91;;;13.37;87.10
13765;BME280;6953;48.810;9.204;2023-08-07T03:50:24;98669.41;;;14.73;87.26
13765;BME280;6953;48.810;9.204;2023-08-07T03:52:49;98660.47;;;14.75;87.58
13765;BME280;6953;48.810;9.204;2023-08-07T03:55:14;98666.56;;;14.76;87.42
13765;BME280;6953;48.810;9.204;2023-08-07T03:57:40;98584.66;;;14.28;87.01
13765;BME280;6953;48.810;9.204;2023-08-07T04:00:05;98670.91;;;14.77;86.99
13765;BME280;6953;48.810;9.204;2023-08-07T04:02:31;98660.97;;;14.80;86.67
13765;BME280;6953;48.810;9.204;2023-08-07T04:04:56;98669.63;;;14.70;86.47
13765;BME280;6953;48.810;9.204;2023-08-07T04:07:22;98637.00;;;14.58;86.59
13765;BME280;6953;48.810;9.204;2023-08-07T04:09:47;98660.56;;;14.61;87.53
13765;BME280;6953;48.810;9.204;2023-08-07T04:12:12;98523.06;;;13.65;87.64
13765;BME280;6953;48.810;9.204;2023-08-07T04:14:37;98588.84;;;13.93;88.06
13765;BME280;6953;48.810;9.204;2023-08-07T04:17:03;98663.72;;;14.29;88.36
13765;BME280;6953;48.810;9.204;2023-08-07T04:19:28;98667.63;;;14.36;88.43
13765;BME280;6953;48.810;9.204;2023-08-07T04:21:54;98681.03;;;14.46;88.12
13765;BME280;6953;48.810;9.204;2023-08-07T04:24:19;98664.13;;;14.48;87.51
13765;BME280;6953;48.810;9.204;2023-08-07T04:26:44;98680.44;;;14.67;87.60
13765;BME280;6953;48.810;9.204;2023-08-07T04:29:09;98442.28;;;13.39;86.09
13765;BME280;6953;48.810;9.204;2023-08-07T04:31:35;98467.84;;;13.63;85.39
13765;BME280;6953;48.810;9.204;2023-08-07T04:34:00;98442.81;;;13.56;85.10
13765;BME280;6953;48.810;9.204;2023-08-07T04:36:25;98530.19;;;14.14;84.96
13765;BME280;6953;48.810;9.204;2023-08-07T04:38:51;98694.13;;;15.09;84.21
13765;BME280;6953;48.810;9.204;2023-08-07T04:41:16;98723.81;;;15.13;83.94
13765;BME280;6953;48.810;9.204;2023-08-07T04:43:42;98714.94;;;15.14;83.83
13765;BME280;6953;48.810;9.204;2023-08-07T04:46:10;98592.09;;;14.58;83.66
13765;BME280;6953;48.810;9.204;2023-08-07T04:48:37;98685.97;;;15.12;83.47
13765;BME280;6953;48.810;9.204;2023-08-07T04:51:02;98627.56;;;14.79;83.78
13765;BME280;6953;48.810;9.204;2023-08-07T04:53:27;98694.84;;;15.24;83.64
13765;BME280;6953;48.810;9.204;2023-08-07T04:55:53;98694.84;;;15.24;83.18
13765;BME280;6953;48.810;9.204;2023-08-07T04:58:18;98505.28;;;14.18;82.93
13765;BME280;6953;48.810;9.204;2023-08-07T05:00:43;98738.84;;;15.37;83.06
13765;BME280;6953;48.810;9.204;2023-08-07T05:03:08;98677.38;;;15.21;82.91
13765;BME280;6953;48.810;9.204;2023-08-07T05:05:34;98714.69;;;15.42;82.86
13765;BME280;6953;48.810;9.204;2023-08-07T05:07:59;98728.53;;;15.45;83.03
13765;BME280;6953;48.810;9.204;2023-08-07T05:10:25;98374.09;;;13.47;82.80
13765;BME280;6953;48.810;9.204;2023-08-07T05:12:50;98434.16;;;13.92;82.39
13765;BME280;6953;48.810;9.204;2023-08-07T05:15:21;98744.31;;;15.47;83.00
13765;BME280;6953;48.810;9.204;2023-08-07T05:17:46;98712.22;;;15.51;82.78
13765;BME280;6953;48.810;9.204;2023-08-07T05:20:12;98738.34;;;15.56;82.69
13765;BME280;6953;48.810;9.204;2023-08-07T05:22:37;98701.44;;;15.54;82.48
13765;BME280;6953;48.810;9.204;2023-08-07T05:25:03;98471.38;;;14.25;82.27
13765;BME280;6953;48.810;9.204;2023-08-07T05:27:28;98720.88;;;15.65;82.75
13765;BME280;6953;48.810;9.204;2023-08-07T05:29:53;98735.66;;;15.68;82.89
13765;BME280;6953;48.810;9.204;2023-08-07T05:32:19;98735.00;;;15.77;82.42
13765;BME280;6953;48.810;9.204;2023-08-07T05:34:44;98718.22;;;15.89;82.25
13765;BME280;6953;48.810;9.204;2023-08-07T05:37:09;98438.88;;;14.37;81.48
13765;BME280;6953;48.810;9.204;2023-08-07T05:39:35;98712.06;;;16.12;81.27
13765;BME280;6953;48.810;9.204;2023-08-07T05:42:01;98558.97;;;15.26;80.46
13765;BME280;6953;48.810;9.204;2023-08-07T05:44:27;98726.03;;;16.14;79.87
13765;BME280;6953;48.810;9.204;2023-08-07T05:46:52;98739.16;;;16.39;79.86
13765;BME280;6953;48.810;9.204;2023-08-07T05:49:19;98720.88;;;16.47;78.71
13765;BME280;6953;48.810;9.204;2023-08-07T05:51:45;98723.44;;;16.48;78.67
13765;BME280;6953;48.810;9.204;2023-08-07T05:54:10;98679.88;;;16.29;78.07
13765;BME280;6953;48.810;9.204;2023-08-07T05:56:37;98492.94;;;15.37;77.13
13765;BME280;6953;48.810;9.204;2023-08-07T05:59:03;98735.78;;;16.82;77.19
13765;BME280;6953;48.810;9.204;2023-08-07T06:01:28;98743.03;;;17.02;75.84
13765;BME280;6953;48.810;9.204;2023-08-07T06:03:57;98744.13;;;17.10;75.48
13765;BME280;6953;48.810;9.204;2023-08-07T06:06:23;98750.00;;;17.14;75.41
13765;BME280;6953;48.810;9.204;2023-08-07T06:08:48;98709.50;;;16.79;75.15
13765;BME280;6953;48.810;9.204;2023-08-07T06:11:14;98774.50;;;17.17;75.18
13765;BME280;6953;48.810;9.204;2023-08-07T06:13:42;98693.84;;;16.98;74.96
13765;BME280;6953;48.810;9.204;2023-08-07T06:16:08;98792.25;;;17.39;74.10
13765;BME280;6953;48.810;9.204;2023-08-07T06:18:33;98751.97;;;17.34;73.74
13765;BME280;6953;48.810;9.204;2023-08-07T06:20:59;98779.47;;;17.55;73.13
13765;BME280;6953;48.810;9.204;2023-08-07T06:23:25;98727.63;;;17.40;72.87
13765;BME280;6953;48.810;9.204;2023-08-07T06:25:50;98773.56;;;17.62;72.78
13765;BME280;6953;48.810;9.204;2023-08-07T06:28:15;98770.78;;;17.64;72.84
13765;BME280;6953;48.810;9.204;2023-08-07T06:30:41;98695.56;;;17.21;72.66
13765;BME280;6953;48.810;9.204;2023-08-07T06:33:06;98762.69;;;17.65;72.47
13765;BME280;6953;48.810;9.204;2023-08-07T06:35:37;98760.41;;;17.72;73.34
13765;BME280;6953;48.810;9.204;2023-08-07T06:38:02;98761.72;;;17.77;73.26
13765;BME280;6953;48.810;9.204;2023-08-07T06:40:28;98753.75;;;17.77;72.81
13765;BME280;6953;48.810;9.204;2023-08-07T06:42:53;98546.53;;;16.63;72.29
13765;BME280;6953;48.810;9.204;2023-08-07T06:45:19;98760.00;;;17.98;72.43
13765;BME280;6953;48.810;9.204;2023-08-07T06:47:44;98775.53;;;18.13;70.42
13765;BME280;6953;48.810;9.204;2023-08-07T06:50:10;98751.34;;;18.16;70.20
13765;BME280;6953;48.810;9.204;2023-08-07T06:52:35;98713.28;;;17.95;69.78
13765;BME280;6953;48.810;9.204;2023-08-07T06:55:01;98752.53;;;18.34;68.74
13765;BME280;6953;48.810;9.204;2023-08-07T06:57:27;98770.66;;;18.61;67.87
13765;BME280;6953;48.810;9.204;2023-08-07T06:59:52;98779.41;;;18.92;66.40
13765;BME280;6953;48.810;9.204;2023-08-07T07:02:17;98819.59;;;18.99;65.95
13765;BME280;6953;48.810;9.204;2023-08-07T07:04:42;98774.81;;;19.75;62.83
13765;BME280;6953;48.810;9.204;2023-08-07T07:07:08;98767.81;;;20.89;56.85
13765;BME280;6953;48.810;9.204;2023-08-07T07:09:33;98781.38;;;21.69;53.11
13765;BME280;6953;48.810;9.204;2023-08-07T07:11:58;98579.34;;;21.68;47.54
13765;BME280;6953;48.810;9.204;2023-08-07T07:14:23;98579.78;;;21.64;46.23
13765;BME280;6953;48.810;9.204;2023-08-07T07:16:49;98763.09;;;22.18;47.70
13765;BME280;6953;48.810;9.204;2023-08-07T07:19:14;98814.22;;;22.85;47.34
13765;BME280;6953;48.810;9.204;2023-08-07T07:21:39;98796.44;;;23.36;45.12
13765;BME280;6953;48.810;9.204;2023-08-07T07:24:05;98679.03;;;22.03;46.83
13765;BME280;6953;48.810;9.204;2023-08-07T07:26:31;98592.13;;;20.57;47.50
13765;BME280;6953;48.810;9.204;2023-08-07T07:28:56;98811.22;;;21.46;49.91
13765;BME280;6953;48.810;9.204;2023-08-07T07:31:22;98593.16;;;20.37;49.94
13765;BME280;6953;48.810;9.204;2023-08-07T07:33:47;98818.28;;;21.83;49.61
13765;BME280;6953;48.810;9.204;2023-08-07T07:36:15;98617.66;;;20.60;49.87
13765;BME280;6953;48.810;9.204;2023-08-07T07:38:41;98810.44;;;21.72;50.14
13765;BME280;6953;48.810;9.204;2023-08-07T07:41:06;98595.59;;;20.67;50.43
13765;BME280;6953;48.810;9.204;2023-08-07T07:43:35;98587.75;;;21.29;48.67
13765;BME280;6953;48.810;9.204;2023-08-07T07:46:00;98818.44;;;24.48;42.21
13765;BME280;6953;48.810;9.204;2023-08-07T07:48:26;98800.88;;;24.61;41.99
13765;BME280;6953;48.810;9.204;2023-08-07T07:50:51;98788.66;;;23.51;43.66
13765;BME280;6953;48.810;9.204;2023-08-07T07:53:18;98798.78;;;22.97;46.87
13765;BME280;6953;48.810;9.204;2023-08-07T07:55:47;98805.94;;;23.31;45.64
13765;BME280;6953;48.810;9.204;2023-08-07T07:58:13;98791.00;;;23.03;46.37
13765;BME280;6953;48.810;9.204;2023-08-07T08:00:38;98718.06;;;22.14;43.95
13765;BME280;6953;48.810;9.204;2023-08-07T08:03:03;98815.97;;;22.15;44.83
13765;BME280;6953;48.810;9.204;2023-08-07T08:05:29;98605.19;;;20.41;46.96
13765;BME280;6953;48.810;9.204;2023-08-07T08:07:54;98820.91;;;21.47;47.00
13765;BME280;6953;48.810;9.204;2023-08-07T08:10:19;98794.88;;;20.94;47.74
13765;BME280;6953;48.810;9.204;2023-08-07T08:12:45;98799.94;;;20.78;49.18
13765;BME280;6953;48.810;9.204;2023-08-07T08:15:10;98827.06;;;20.83;49.28
13765;BME280;6953;48.810;9.204;2023-08-07T08:17:35;98630.47;;;19.99;48.96
13765;BME280;6953;48.810;9.204;2023-08-07T08:20:01;98838.91;;;21.45;49.55
13765;BME280;6953;48.810;9.204;2023-08-07T08:22:26;98840.72;;;21.63;48.66
13765;BME280;6953;48.810;9.204;2023-08-07T08:24:51;98758.66;;;21.46;48.30
13765;BME280;6953;48.810;9.204;2023-08-07T08:27:17;98829.63;;;21.95;47.75
13765;BME280;6953;48.810;9.204;2023-08-07T08:29:43;98670.66;;;20.82;48.77
13765;BME280;6953;48.810;9.204;2023-08-07T08:32:08;98831.56;;;21.56;47.72
13765;BME280;6953;48.810;9.204;2023-08-07T08:34:34;98810.31;;;21.18;48.25
13765;BME280;6953;48.810;9.204;2023-08-07T08:36:59;98831.53;;;21.01;47.97
13765;BME280;6953;48.810;9.204;2023-08-07T08:39:25;98720.13;;;20.38;48.81
13765;BME280;6953;48.810;9.204;2023-08-07T08:41:50;98782.44;;;21.30;47.95
13765;BME280;6953;48.810;9.204;2023-08-07T08:44:17;98839.06;;;21.89;46.79
13765;BME280;6953;48.810;9.204;2023-08-07T08:46:46;98833.34;;;22.02;46.00
13765;BME280;6953;48.810;9.204;2023-08-07T08:49:16;98829.09;;;21.91;44.34
13765;BME280;6953;48.810;9.204;2023-08-07T08:51:44;98833.31;;;21.84;42.67
13765;BME280;6953;48.810;9.204;2023-08-07T08:54:09;98848.81;;;21.71;43.38
13765;BME280;6953;48.810;9.204;2023-08-07T08:56:36;98826.41;;;21.91;42.26
13765;BME280;6953;48.810;9.204;2023-08-07T08:59:02;98841.22;;;22.39;41.52
13765;BME280;6953;48.810;9.204;2023-08-07T09:01:28;98856.44;;;22.56;39.56
13765;BME280;6953;48.810;9.204;2023-08-07T09:03:55;98826.31;;;22.89;39.35
13765;BME280;6953;48.810;9.204;2023-08-07T09:06:21;98877.13;;;23.59;38.06
13765;BME280;6953;48.810;9.204;2023-08-07T09:08:47;98825.66;;;24.06;36.35
13765;BME280;6953;48.810;9.204;2023-08-07T09:11:13;98812.59;;;24.68;34.75
13765;BME280;6953;48.810;9.204;2023-08-07T09:13:40;98849.34;;;25.95;32.69
13765;BME280;6953;48.810;9.204;2023-08-07T09:16:08;98683.19;;;25.21;31.69
13765;BME280;6953;48.810;9.204;2023-08-07T09:18:34;98810.19;;;25.77;32.96
13765;BME280;6953;48.810;9.204;2023-08-07T09:21:00;98895.06;;;25.95;32.72
13765;BME280;6953;48.810;9.204;2023-08-07T09:23:25;98876.13;;;25.41;33.08
13765;BME280;6953;48.810;9.204;2023-08-07T09:26:02;98808.94;;;24.77;34.19
13765;BME280;6953;48.810;9.204;2023-08-07T09:28:28;98872.38;;;25.10;33.46
13765;BME280;6953;48.810;9.204;2023-08-07T09:30:55;98859.84;;;24.45;33.63
13765;BME280;6953;48.810;9.204;2023-08-07T09:33:28;98879.56;;;24.78;34.71
13765;BME280;6953;48.810;9.204;2023-08-07T09:36:02;98694.38;;;23.89;34.90
13765;BME280;6953;48.810;9.204;2023-08-07T09:38:31;98860.00;;;25.17;34.74
13765;BME280;6953;48.810;9.204;2023-08-07T09:41:00;98886.03;;;25.48;35.10
13765;BME280;6953;48.810;9.204;2023-08-07T09:43:26;98905.50;;;25.66;34.16
13765;BME280;6953;48.810;9.204;2023-08-07T09:45:51;98890.22;;;25.19;34.81
13765;BME280;6953;48.810;9.204;2023-08-07T09:48:23;98691.72;;;23.55;35.08
13765;BME280;6953;48.810;9.204;2023-08-07T09:50:49;98682.03;;;24.04;33.82
13765;BME280;6953;48.810;9.204;2023-08-07T09:53:14;98848.41;;;25.40;32.64
13765;BME280;6953;48.810;9.204;2023-08-07T09:55:39;98926.00;;;25.83;33.01
13765;BME280;6953;48.810;9.204;2023-08-07T09:58:07;98903.97;;;25.72;33.04
13765;BME280;6953;48.810;9.204;2023-08-07T10:00:36;98698.28;;;24.18;34.68
13765;BME280;6953;48.810;9.204;2023-08-07T10:03:01;98896.03;;;24.99;34.89
13765;BME280;6953;48.810;9.204;2023-08-07T10:05:27;98890.00;;;24.89;35.73
13765;BME280;6953;48.810;9.204;2023-08-07T10:07:53;98900.31;;;25.65;34.79
13765;BME280;6953;48.810;9.204;2023-08-07T10:10:19;98839.94;;;27.21;30.36
13765;BME280;6953;48.810;9.204;2023-08-07T10:12:46;98829.63;;;28.04;29.24
13765;BME280;6953;48.810;9.204;2023-08-07T10:15:14;98904.56;;;29.10;27.94
13765;BME280;6953;48.810;9.204;2023-08-07T10:17:39;98753.72;;;28.78;28.12
13765;BME280;6953;48.810;9.204;2023-08-07T10:20:06;98913.13;;;31.05;25.63
13765;BME280;6953;48.810;9.204;2023-08-07T10:22:33;98721.44;;;29.18;25.18
13765;BME280;6953;48.810;9.204;2023-08-07T10:25:01;98907.00;;;28.41;27.88
13765;BME280;6953;48.810;9.204;2023-08-07T10:27:29;98879.50;;;26.67;29.59
13765;BME280;6953;48.810;9.204;2023-08-07T10:29:57;98908.16;;;26.52;30.61
13765;BME280;6953;48.810;9.204;2023-08-07T10:32:24;98884.91;;;26.59;30.97
13765;BME280;6953;48.810;9.204;2023-08-07T10:34:50;98714.94;;;25.17;30.27
13765;BME280;6953;48.810;9.204;2023-08-07T10:37:38;98889.19;;;25.04;31.86
13765;BME280;6953;48.810;9.204;2023-08-07T10:40:05;98884.69;;;24.14;34.57
13765;BME280;6953;48.810;9.204;2023-08-07T10:45:26;98882.91;;;23.72;36.32
13765;BME280;6953;48.810;9.204;2023-08-07T10:50:34;98837.25;;;22.16;38.75
13765;BME280;6953;48.810;9.204;2023-08-07T10:53:03;98899.66;;;22.34;39.78
13765;BME280;6953;48.810;9.204;2023-08-07T10:55:43;98857.56;;;22.36;39.65
13765;BME280;6953;48.810;9.204;2023-08-07T11:01:19;98884.97;;;23.52;37.80
13765;BME280;6953;48.810;9.204;2023-08-07T11:04:07;98687.41;;;23.21;33.88
13765;BME280;6953;48.810;9.204;2023-08-07T11:06:35;98939.25;;;25.77;32.02
13765;BME280;6953;48.810;9.204;2023-08-07T11:09:03;98906.59;;;26.20;30.31
13765;BME280;6953;48.810;9.204;2023-08-07T11:11:37;98718.41;;;24.06;31.77
13765;BME280;6953;48.810;9.204;2023-08-07T11:14:09;98867.19;;;23.77;33.23
13765;BME280;6953;48.810;9.204;2023-08-07T11:16:34;98910.78;;;23.18;35.52
13765;BME280;6953;48.810;9.204;2023-08-07T11:18:59;98726.16;;;21.51;36.80
13765;BME280;6953;48.810;9.204;2023-08-07T11:21:25;98910.25;;;22.53;38.12
13765;BME280;6953;48.810;9.204;2023-08-07T11:23:50;98905.72;;;22.54;39.02
13765;BME280;6953;48.810;9.204;2023-08-07T11:26:16;98885.91;;;22.20;39.85
13765;BME280;6953;48.810;9.204;2023-08-07T11:28:42;98904.50;;;22.48;41.05
13765;BME280;6953;48.810;9.204;2023-08-07T11:31:07;98687.84;;;21.06;41.22
13765;BME280;6953;48.810;9.204;2023-08-07T11:33:33;98895.41;;;22.05;41.92
13765;BME280;6953;48.810;9.204;2023-08-07T11:35:59;98696.50;;;20.62;42.26
13765;BME280;6953;48.810;9.204;2023-08-07T11:38:38;98922.66;;;21.63;43.13
13765;BME280;6953;48.810;9.204;2023-08-07T11:41:06;98906.25;;;21.58;44.09
13765;BME280;6953;48.810;9.204;2023-08-07T11:43:33;98904.09;;;21.52;44.32
13765;BME280;6953;48.810;9.204;2023-08-07T11:46:00;98871.25;;;21.23;45.59
13765;BME280;6953;48.810;9.204;2023-08-07T11:48:27;98838.41;;;20.56;46.93
13765;BME280;6953;48.810;9.204;2023-08-07T11:50:53;98673.13;;;19.41;48.31
13765;BME280;6953;48.810;9.204;2023-08-07T11:53:20;98885.25;;;20.59;48.93
13765;BME280;6953;48.810;9.204;2023-08-07T11:55:59;98906.84;;;20.46;49.96
13765;BME280;6953;48.810;9.204;2023-08-07T11:58:26;98910.22;;;20.48;50.97
13765;BME280;6953;48.810;9.204;2023-08-07T12:00:52;98915.25;;;20.42;51.25
13765;BME280;6953;48.810;9.204;2023-08-07T12:03:28;98910.16;;;20.29;51.95
13765;BME280;6953;48.810;9.204;2023-08-07T12:05:56;98895.56;;;20.24;51.97
13765;BME280;6953;48.810;9.204;2023-08-07T12:08:21;98715.28;;;19.46;51.78
13765;BME280;6953;48.810;9.204;2023-08-07T12:10:51;98761.94;;;19.89;50.97
13765;BME280;6953;48.810;9.204;2023-08-07T12:13:20;98922.13;;;21.02;50.31
13765;BME280;6953;48.810;9.204;2023-08-07T12:15:46;98912.72;;;20.89;49.95
13765;BME280;6953;48.810;9.204;2023-08-07T12:18:12;98927.31;;;21.04;50.05
13765;BME280;6953;48.810;9.204;2023-08-07T12:20:38;98823.78;;;21.26;48.71
13765;BME280;6953;48.810;9.204;2023-08-07T12:23:03;98913.56;;;23.00;45.32
13765;BME280;6953;48.810;9.204;2023-08-07T12:25:28;98960.56;;;23.29;44.05
13765;BME280;6953;48.810;9.204;2023-08-07T12:27:54;98959.44;;;23.14;44.20
13765;BME280;6953;48.810;9.204;2023-08-07T12:30:19;98882.53;;;23.24;43.37
13765;BME280;6953;48.810;9.204;2023-08-07T12:32:44;98757.19;;;23.02;42.09
13765;BME280;6953;48.810;9.204;2023-08-07T12:35:10;98864.06;;;24.15;40.64
13765;BME280;6953;48.810;9.204;2023-08-07T12:37:36;98735.00;;;23.35;40.20
13765;BME280;6953;48.810;9.204;2023-08-07T12:40:01;98896.22;;;23.81;41.93
13765;BME280;6953;48.810;9.204;2023-08-07T12:42:28;98927.56;;;23.63;43.06
13765;BME280;6953;48.810;9.204;2023-08-07T12:44:53;98725.78;;;22.17;44.38
13765;BME280;6953;48.810;9.204;2023-08-07T12:47:18;98912.38;;;23.46;44.72
13765;BME280;6953;48.810;9.204;2023-08-07T12:49:43;98908.59;;;23.57;44.95
13765;BME280;6953;48.810;9.204;2023-08-07T12:52:11;98855.69;;;23.33;42.12
13765;BME280;6953;48.810;9.204;2023-08-07T12:54:36;98924.25;;;23.69;41.47
13765;BME280;6953;48.810;9.204;2023-08-07T12:57:01;98922.03;;;23.65;42.42
13765;BME280;6953;48.810;9.204;2023-08-07T12:59:27;98714.06;;;22.62;41.69
13765;BME280;6953;48.810;9.204;2023-08-07T13:01:52;98860.75;;;23.87;41.92
13765;BME280;6953;48.810;9.204;2023-08-07T13:04:18;98922.22;;;24.47;41.31
13765;BME280;6953;48.810;9.204;2023-08-07T13:06:43;98689.91;;;23.22;40.90
13765;BME280;6953;48.810;9.204;2023-08-07T13:09:09;98722.47;;;23.43;41.19
13765;BME280;6953;48.810;9.204;2023-08-07T13:11:34;98873.34;;;23.95;41.23
13765;BME280;6953;48.810;9.204;2023-08-07T13:13:59;98912.88;;;23.75;43.24
13765;BME280;6953;48.810;9.204;2023-08-07T13:16:25;98906.84;;;23.48;44.34